sensor_id;sensor_type;location;lat;lon;timestamp;pressure;altitude;pressure_sealevel;temperature;humidity
21824;BME280;11074;48.596;9.238;2024-01-11T00:01:08;99190.59;;;-2.07;83.33
21824;BME280;11074;48.596;9.238;2024-01-11T00:03:34;99188.06;;;-1.99;82.87
21824;BME280;11074;48.596;9.238;2024-01-11T00:06:00;99188.81;;;-2.06;82.92
21824;BME280;11074;48.596;9.238;2024-01-11T00:08:26;99181.97;;;-1.90;82.14
21824;BME280;11074;48.596;9.238;2024-01-11T00:10:51;99194.22;;;-1.90;81.73
21824;BME280;11074;48.596;9.238;2024-01-11T00:13:17;99196.13;;;-2.10;80.50
21824;BME280;11074;48.596;9.238;2024-01-11T00:15:42;99203.41;;;-2.31;81.35
21824;BME280;11074;48.596;9.238;2024-01-11T00:18:07;99196.75;;;-1.98;82.19
21824;BME280;11074;48.596;9.238;2024-01-11T00:20:32;99196.50;;;-2.05;81.27
21824;BME280;11074;48.596;9.238;2024-01-11T00:22:58;99201.47;;;-2.56;82.15
21824;BME280;11074;48.596;9.238;2024-01-11T00:25:23;99199.69;;;-2.65;82.40
21824;BME280;11074;48.596;9.238;2024-01-11T00:27:48;99208.47;;;-2.57;82.91
21824;BME280;11074;48.596;9.238;2024-01-11T00:30:14;99202.09;;;-2.45;82.86
21824;BME280;11074;48.596;9.238;2024-01-11T00:32:39;99196.44;;;-2.40;82.93
21824;BME280;11074;48.596;9.238;2024-01-11T00:35:05;99206.91;;;-2.13;83.12
21824;BME280;11074;48.596;9.238;2024-01-11T00:37:31;99207.63;;;-1.93;81.60
21824;BME280;11074;48.596;9.238;2024-01-11T00:39:56;99205.38;;;-1.88;81.01
21824;BME280;11074;48.596;9.238;2024-01-11T00:42:21;99205.38;;;-1.88;81.37
21824;BME280;11074;48.596;9.238;2024-01-11T00:44:46;99195.09;;;-1.99;80.41
21824;BME280;11074;48.596;9.238;2024-01-11T00:47:12;99208.59;;;-2.49;80.99
21824;BME280;11074;48.596;9.238;2024-01-11T00:49:37;99213.50;;;-2.36;82.11
21824;BME280;11074;48.596;9.238;2024-01-11T00:52:02;99199.53;;;-2.00;82.06
21824;BME280;11074;48.596;9.238;2024-01-11T00:54:28;99194.63;;;-2.12;80.38
21824;BME280;11074;48.596;9.238;2024-01-11T00:56:53;99198.63;;;-2.08;82.38
21824;BME280;11074;48.596;9.238;2024-01-11T00:59:18;99210.03;;;-2.00;81.26
21824;BME280;11074;48.596;9.238;2024-01-11T01:01:50;99215.53;;;-2.03;80.69
21824;BME280;11074;48.596;9.238;2024-01-11T01:04:15;99208.22;;;-2.26;80.36
21824;BME280;11074;48.596;9.238;2024-01-11T01:06:41;99217.28;;;-2.48;82.41
21824;BME280;11074;48.596;9.238;2024-01-11T01:09:07;99214.13;;;-2.24;81.53
21824;BME280;11074;48.596;9.238;2024-01-11T01:11:32;99213.13;;;-2.14;81.72
21824;BME280;11074;48.596;9.238;2024-01-11T01:13:57;99207.38;;;-2.54;81.34
21824;BME280;11074;48.596;9.238;2024-01-11T01:16:22;99215.16;;;-2.35;82.25
21824;BME280;11074;48.596;9.238;2024-01-11T01:18:48;99218.16;;;-2.30;82.01
21824;BME280;11074;48.596;9.238;2024-01-11T01:21:13;99213.75;;;-2.29;82.97
21824;BME280;11074;48.596;9.238;2024-01-11T01:23:38;99208.16;;;-2.17;81.90
21824;BME280;11074;48.596;9.238;2024-01-11T01:26:04;99220.50;;;-2.36;80.58
21824;BME280;11074;48.596;9.238;2024-01-11T01:28:29;99219.72;;;-2.37;82.32
21824;BME280;11074;48.596;9.238;2024-01-11T01:30:54;99218.38;;;-2.51;81.90
21824;BME280;11074;48.596;9.238;2024-01-11T01:33:19;99219.44;;;-2.90;81.89
21824;BME280;11074;48.596;9.238;2024-01-11T01:35:45;99223.69;;;-2.70;83.12
21824;BME280;11074;48.596;9.238;2024-01-11T01:38:11;99225.38;;;-2.41;82.41
21824;BME280;11074;48.596;9.238;2024-01-11T01:40:37;99207.09;;;-2.51;82.50
21824;BME280;11074;48.596;9.238;2024-01-11T01:43:06;99215.50;;;-2.57;80.97
21824;BME280;11074;48.596;9.238;2024-01-11T01:45:32;99212.50;;;-2.62;81.51
21824;BME280;11074;48.596;9.238;2024-01-11T01:47:58;99220.41;;;-2.45;81.77
21824;BME280;11074;48.596;9.238;2024-01-11T01:50:23;99220.41;;;-2.45;81.54
21824;BME280;11074;48.596;9.238;2024-01-11T01:52:49;99230.81;;;-2.25;81.29
21824;BME280;11074;48.596;9.238;2024-01-11T01:55:16;99217.91;;;-2.36;80.46
21824;BME280;11074;48.596;9.238;2024-01-11T01:57:43;99235.44;;;-2.47;81.99
21824;BME280;11074;48.596;9.238;2024-01-11T02:00:10;99234.69;;;-2.29;81.25
21824;BME280;11074;48.596;9.238;2024-01-11T02:02:38;99229.22;;;-2.82;81.46
21824;BME280;11074;48.596;9.238;2024-01-11T02:05:04;99233.63;;;-2.83;81.08
21824;BME280;11074;48.596;9.238;2024-01-11T02:07:30;99236.44;;;-2.48;81.82
21824;BME280;11074;48.596;9.238;2024-01-11T02:09:56;99232.66;;;-2.35;81.29
21824;BME280;11074;48.596;9.238;2024-01-11T02:12:21;99235.25;;;-2.35;81.86
21824;BME280;11074;48.596;9.238;2024-01-11T02:14:47;99244.34;;;-2.30;81.14
21824;BME280;11074;48.596;9.238;2024-01-11T02:17:12;99252.47;;;-2.33;80.45
21824;BME280;11074;48.596;9.238;2024-01-11T02:19:37;99242.00;;;-2.33;80.46
21824;BME280;11074;48.596;9.238;2024-01-11T02:22:10;99245.34;;;-2.40;81.28
21824;BME280;11074;48.596;9.238;2024-01-11T02:24:38;99251.94;;;-2.36;80.53
21824;BME280;11074;48.596;9.238;2024-01-11T02:27:04;99252.09;;;-2.38;81.07
21824;BME280;11074;48.596;9.238;2024-01-11T02:29:30;99246.13;;;-2.30;81.15
21824;BME280;11074;48.596;9.238;2024-01-11T02:31:56;99248.56;;;-2.56;80.14
21824;BME280;11074;48.596;9.238;2024-01-11T02:34:26;99245.97;;;-2.66;80.70
21824;BME280;11074;48.596;9.238;2024-01-11T02:36:53;99243.97;;;-2.45;81.51
21824;BME280;11074;48.596;9.238;2024-01-11T02:39:19;99238.59;;;-2.43;81.73
21824;BME280;11074;48.596;9.238;2024-01-11T02:41:44;99242.88;;;-3.08;82.08
21824;BME280;11074;48.596;9.238;2024-01-11T02:44:10;99246.16;;;-2.77;81.88
21824;BME280;11074;48.596;9.238;2024-01-11T02:46:35;99240.44;;;-2.63;81.57
21824;BME280;11074;48.596;9.238;2024-01-11T02:49:01;99246.50;;;-2.62;81.71
21824;BME280;11074;48.596;9.238;2024-01-11T02:51:26;99246.78;;;-2.56;81.13
21824;BME280;11074;48.596;9.238;2024-01-11T02:53:51;99239.31;;;-2.51;80.96
21824;BME280;11074;48.596;9.238;2024-01-11T02:56:17;99242.34;;;-2.46;81.04
21824;BME280;11074;48.596;9.238;2024-01-11T02:58:42;99246.59;;;-2.45;80.23
21824;BME280;11074;48.596;9.238;2024-01-11T03:01:07;99248.81;;;-2.50;80.28
21824;BME280;11074;48.596;9.238;2024-01-11T03:03:32;99244.00;;;-2.54;81.05
21824;BME280;11074;48.596;9.238;2024-01-11T03:05:58;99244.97;;;-2.55;80.51
21824;BME280;11074;48.596;9.238;2024-01-11T03:08:23;99241.69;;;-2.57;80.74
21824;BME280;11074;48.596;9.238;2024-01-11T03:10:48;99247.19;;;-2.51;80.49
21824;BME280;11074;48.596;9.238;2024-01-11T03:13:13;99244.00;;;-2.54;80.93
21824;BME280;11074;48.596;9.238;2024-01-11T03:15:39;99238.97;;;-2.84;79.85
21824;BME280;11074;48.596;9.238;2024-01-11T03:18:04;99239.94;;;-2.76;80.70
21824;BME280;11074;48.596;9.238;2024-01-11T03:20:30;99236.59;;;-2.68;81.61
21824;BME280;11074;48.596;9.238;2024-01-11T03:22:55;99226.84;;;-2.66;81.15
21824;BME280;11074;48.596;9.238;2024-01-11T03:25:20;99231.09;;;-2.65;81.81
21824;BME280;11074;48.596;9.238;2024-01-11T03:27:46;99228.19;;;-2.62;81.73
21824;BME280;11074;48.596;9.238;2024-01-11T03:30:11;99227.38;;;-2.63;81.61
21824;BME280;11074;48.596;9.238;2024-01-11T03:32:37;99222.03;;;-2.71;81.07
21824;BME280;11074;48.596;9.238;2024-01-11T03:35:05;99222.03;;;-2.71;81.24
21824;BME280;11074;48.596;9.238;2024-01-11T03:37:31;99222.69;;;-2.69;80.71
21824;BME280;11074;48.596;9.238;2024-01-11T03:39:56;99219.00;;;-2.66;80.09
21824;BME280;11074;48.596;9.238;2024-01-11T03:42:22;99218.16;;;-2.67;79.82
21824;BME280;11074;48.596;9.238;2024-01-11T03:44:47;99219.44;;;-2.80;80.39
21824;BME280;11074;48.596;9.238;2024-01-11T03:47:13;99225.34;;;-2.78;79.47
21824;BME280;11074;48.596;9.238;2024-01-11T03:49:38;99228.78;;;-2.78;79.96
21824;BME280;11074;48.596;9.238;2024-01-11T03:52:04;99226.31;;;-2.79;79.90
21824;BME280;11074;48.596;9.238;2024-01-11T03:54:29;99218.25;;;-2.95;81.83
21824;BME280;11074;48.596;9.238;2024-01-11T03:56:54;99223.75;;;-3.08;82.07
21824;BME280;11074;48.596;9.238;2024-01-11T03:59:19;99221.53;;;-2.93;81.55
21824;BME280;11074;48.596;9.238;2024-01-11T04:01:45;99216.28;;;-2.84;81.24
21824;BME280;11074;48.596;9.238;2024-01-11T04:04:10;99211.09;;;-3.13;80.25
21824;BME280;11074;48.596;9.238;2024-01-11T04:06:36;99207.22;;;-2.99;80.94
21824;BME280;11074;48.596;9.238;2024-01-11T04:09:01;99218.63;;;-2.81;80.37
21824;BME280;11074;48.596;9.238;2024-01-11T04:11:29;99215.16;;;-2.72;79.53
21824;BME280;11074;48.596;9.238;2024-01-11T04:13:55;99215.72;;;-2.78;78.40
21824;BME280;11074;48.596;9.238;2024-01-11T04:16:20;99209.59;;;-3.34;79.01
21824;BME280;11074;48.596;9.238;2024-01-11T04:18:46;99211.97;;;-3.41;80.41
21824;BME280;11074;48.596;9.238;2024-01-11T04:21:27;99210.56;;;-3.26;80.80
21824;BME280;11074;48.596;9.238;2024-01-11T04:23:58;99214.69;;;-3.14;81.15
21824;BME280;11074;48.596;9.238;2024-01-11T04:26:24;99204.88;;;-2.92;80.79
21824;BME280;11074;48.596;9.238;2024-01-11T04:28:49;99218.22;;;-2.86;79.54
21824;BME280;11074;48.596;9.238;2024-01-11T04:31:16;99215.16;;;-2.81;80.19
21824;BME280;11074;48.596;9.238;2024-01-11T04:33:42;99219.88;;;-2.85;79.62
21824;BME280;11074;48.596;9.238;2024-01-11T04:36:08;99221.50;;;-2.84;79.31
21824;BME280;11074;48.596;9.238;2024-01-11T04:38:34;99213.94;;;-2.87;79.13
21824;BME280;11074;48.596;9.238;2024-01-11T04:40:59;99218.94;;;-2.93;79.49
21824;BME280;11074;48.596;9.238;2024-01-11T04:43:25;99214.53;;;-2.93;79.59
21824;BME280;11074;48.596;9.238;2024-01-11T04:45:51;99218.22;;;-2.86;79.53
21824;BME280;11074;48.596;9.238;2024-01-11T04:48:16;99223.88;;;-2.90;79.47
21824;BME280;11074;48.596;9.238;2024-01-11T04:50:42;99218.25;;;-2.95;78.98
21824;BME280;11074;48.596;9.238;2024-01-11T04:53:08;99218.25;;;-2.95;78.92
21824;BME280;11074;48.596;9.238;2024-01-11T04:55:33;99215.63;;;-2.95;79.22
21824;BME280;11074;48.596;9.238;2024-01-11T04:57:59;99216.47;;;-3.24;79.48
21824;BME280;11074;48.596;9.238;2024-01-11T05:00:24;99221.38;;;-2.92;80.59
21824;BME280;11074;48.596;9.238;2024-01-11T05:02:49;99221.13;;;-2.98;80.18
21824;BME280;11074;48.596;9.238;2024-01-11T05:05:15;99216.75;;;-3.17;80.34
21824;BME280;11074;48.596;9.238;2024-01-11T05:07:40;99206.19;;;-3.44;80.40
21824;BME280;11074;48.596;9.238;2024-01-11T05:10:06;99219.50;;;-3.09;80.68
21824;BME280;11074;48.596;9.238;2024-01-11T05:12:32;99223.88;;;-3.00;80.01
21824;BME280;11074;48.596;9.238;2024-01-11T05:14:57;99215.19;;;-3.00;79.45
21824;BME280;11074;48.596;9.238;2024-01-11T05:17:22;99222.53;;;-3.04;79.59
21824;BME280;11074;48.596;9.238;2024-01-11T05:19:47;99221.16;;;-3.18;80.18
21824;BME280;11074;48.596;9.238;2024-01-11T05:22:13;99232.28;;;-2.96;80.38
21824;BME280;11074;48.596;9.238;2024-01-11T05:24:38;99230.34;;;-2.85;80.24
21824;BME280;11074;48.596;9.238;2024-01-11T05:27:03;99226.91;;;-2.95;79.55
21824;BME280;11074;48.596;9.238;2024-01-11T05:29:29;99226.53;;;-3.29;79.54
21824;BME280;11074;48.596;9.238;2024-01-11T05:31:54;99238.47;;;-3.17;80.13
21824;BME280;11074;48.596;9.238;2024-01-11T05:34:19;99240.97;;;-3.34;79.57
21824;BME280;11074;48.596;9.238;2024-01-11T05:36:45;99235.31;;;-3.68;81.31
21824;BME280;11074;48.596;9.238;2024-01-11T05:39:10;99241.38;;;-3.48;81.31
21824;BME280;11074;48.596;9.238;2024-01-11T05:41:35;99232.53;;;-3.86;80.85
21824;BME280;11074;48.596;9.238;2024-01-11T05:44:00;99228.84;;;-3.74;80.79
21824;BME280;11074;48.596;9.238;2024-01-11T05:46:26;99241.25;;;-3.47;81.45
21824;BME280;11074;48.596;9.238;2024-01-11T05:48:51;99250.34;;;-3.22;81.19
21824;BME280;11074;48.596;9.238;2024-01-11T05:51:16;99258.72;;;-3.19;80.49
21824;BME280;11074;48.596;9.238;2024-01-11T05:53:41;99264.22;;;-3.12;79.82
21824;BME280;11074;48.596;9.238;2024-01-11T05:56:08;99265.72;;;-3.19;78.84
21824;BME280;11074;48.596;9.238;2024-01-11T05:58:33;99262.59;;;-3.23;78.17
21824;BME280;11074;48.596;9.238;2024-01-11T06:01:01;99263.53;;;-3.52;79.22
21824;BME280;11074;48.596;9.238;2024-01-11T06:03:26;99272.06;;;-3.31;79.94
21824;BME280;11074;48.596;9.238;2024-01-11T06:05:53;99270.66;;;-3.35;79.28
21824;BME280;11074;48.596;9.238;2024-01-11T06:08:18;99266.31;;;-3.25;79.72
21824;BME280;11074;48.596;9.238;2024-01-11T06:10:43;99270.84;;;-3.18;79.25
21824;BME280;11074;48.596;9.238;2024-01-11T06:13:09;99265.44;;;-3.16;78.41
21824;BME280;11074;48.596;9.238;2024-01-11T06:15:34;99284.72;;;-3.36;78.67
21824;BME280;11074;48.596;9.238;2024-01-11T06:18:00;99281.28;;;-3.27;78.41
21824;BME280;11074;48.596;9.238;2024-01-11T06:20:25;99278.81;;;-3.29;79.08
21824;BME280;11074;48.596;9.238;2024-01-11T06:22:50;99276.19;;;-3.29;79.10
21824;BME280;11074;48.596;9.238;2024-01-11T06:25:16;99283.91;;;-3.18;79.81
21824;BME280;11074;48.596;9.238;2024-01-11T06:27:42;99283.06;;;-3.37;79.01
21824;BME280;11074;48.596;9.238;2024-01-11T06:30:09;99284.19;;;-3.99;79.94
21824;BME280;11074;48.596;9.238;2024-01-11T06:32:34;99288.00;;;-3.53;80.15
21824;BME280;11074;48.596;9.238;2024-01-11T06:34:59;99280.31;;;-3.36;79.89
21824;BME280;11074;48.596;9.238;2024-01-11T06:37:25;99280.06;;;-3.33;78.76
21824;BME280;11074;48.596;9.238;2024-01-11T06:39:50;99290.22;;;-3.20;79.30
21824;BME280;11074;48.596;9.238;2024-01-11T06:42:16;99279.09;;;-3.22;78.69
21824;BME280;11074;48.596;9.238;2024-01-11T06:44:41;99277.84;;;-3.28;78.97
21824;BME280;11074;48.596;9.238;2024-01-11T06:47:06;99276.59;;;-3.43;80.42
21824;BME280;11074;48.596;9.238;2024-01-11T06:49:31;99288.31;;;-3.28;80.26
21824;BME280;11074;48.596;9.238;2024-01-11T06:51:57;99281.16;;;-3.26;80.12
21824;BME280;11074;48.596;9.238;2024-01-11T06:54:22;99284.19;;;-3.21;79.80
21824;BME280;11074;48.596;9.238;2024-01-11T06:56:47;99294.63;;;-3.21;78.74
21824;BME280;11074;48.596;9.238;2024-01-11T06:59:13;99298.19;;;-3.22;79.75
21824;BME280;11074;48.596;9.238;2024-01-11T07:01:38;99300.97;;;-3.23;78.97
21824;BME280;11074;48.596;9.238;2024-01-11T07:04:03;99293.53;;;-3.28;79.54
21824;BME280;11074;48.596;9.238;2024-01-11T07:06:29;99292.91;;;-3.70;79.11
21824;BME280;11074;48.596;9.238;2024-01-11T07:08:54;99294.31;;;-3.65;79.62
21824;BME280;11074;48.596;9.238;2024-01-11T07:11:19;99306.72;;;-3.39;79.86
21824;BME280;11074;48.596;9.238;2024-01-11T07:13:44;99308.94;;;-3.25;79.72
21824;BME280;11074;48.596;9.238;2024-01-11T07:16:10;99303.16;;;-3.19;79.40
21824;BME280;11074;48.596;9.238;2024-01-11T07:18:35;99312.25;;;-3.23;79.43
21824;BME280;11074;48.596;9.238;2024-01-11T07:21:00;99315.25;;;-3.46;78.52
21824;BME280;11074;48.596;9.238;2024-01-11T07:23:26;99313.81;;;-3.70;79.71
21824;BME280;11074;48.596;9.238;2024-01-11T07:25:52;99321.63;;;-3.89;80.03
21824;BME280;11074;48.596;9.238;2024-01-11T07:28:17;99321.94;;;-3.63;79.93
21824;BME280;11074;48.596;9.238;2024-01-11T07:30:43;99332.19;;;-3.41;79.94
21824;BME280;11074;48.596;9.238;2024-01-11T07:33:08;99341.66;;;-3.40;78.31
21824;BME280;11074;48.596;9.238;2024-01-11T07:35:34;99338.09;;;-3.39;79.04
21824;BME280;11074;48.596;9.238;2024-01-11T07:37:59;99335.53;;;-3.69;79.07
21824;BME280;11074;48.596;9.238;2024-01-11T07:40:25;99320.63;;;-3.38;80.10
21824;BME280;11074;48.596;9.238;2024-01-11T07:42:50;99326.06;;;-3.60;79.35
21824;BME280;11074;48.596;9.238;2024-01-11T07:45:16;99321.56;;;-3.30;80.09
21824;BME280;11074;48.596;9.238;2024-01-11T07:47:42;99325.44;;;-3.24;79.89
21824;BME280;11074;48.596;9.238;2024-01-11T07:50:08;99325.00;;;-3.48;78.32
21824;BME280;11074;48.596;9.238;2024-01-11T07:52:37;99326.59;;;-3.67;78.63
21824;BME280;11074;48.596;9.238;2024-01-11T07:55:03;99326.84;;;-3.89;79.74
21824;BME280;11074;48.596;9.238;2024-01-11T07:57:36;99335.63;;;-3.80;80.34
21824;BME280;11074;48.596;9.238;2024-01-11T08:00:03;99341.22;;;-3.54;79.86
21824;BME280;11074;48.596;9.238;2024-01-11T08:02:28;99344.94;;;-3.47;78.18
21824;BME280;11074;48.596;9.238;2024-01-11T08:04:54;99351.28;;;-3.40;78.86
21824;BME280;11074;48.596;9.238;2024-01-11T08:07:19;99352.41;;;-3.33;78.81
21824;BME280;11074;48.596;9.238;2024-01-11T08:09:44;99354.03;;;-3.32;79.28
21824;BME280;11074;48.596;9.238;2024-01-11T08:12:14;99369.75;;;-3.23;79.15
21824;BME280;11074;48.596;9.238;2024-01-11T08:14:39;99360.41;;;-3.16;79.53
21824;BME280;11074;48.596;9.238;2024-01-11T08:17:04;99358.88;;;-3.28;78.69
21824;BME280;11074;48.596;9.238;2024-01-11T08:19:32;99355.97;;;-3.34;80.37
21824;BME280;11074;48.596;9.238;2024-01-11T08:21:58;99375.00;;;-3.13;80.88
21824;BME280;11074;48.596;9.238;2024-01-11T08:24:23;99385.19;;;-3.10;79.40
21824;BME280;11074;48.596;9.238;2024-01-11T08:26:50;99400.19;;;-3.02;78.79
21824;BME280;11074;48.596;9.238;2024-01-11T08:29:15;99404.31;;;-3.00;79.01
21824;BME280;11074;48.596;9.238;2024-01-11T08:31:40;99397.44;;;-2.91;78.51
21824;BME280;11074;48.596;9.238;2024-01-11T08:34:08;99406.41;;;-2.94;79.17
21824;BME280;11074;48.596;9.238;2024-01-11T08:36:34;99396.66;;;-2.82;79.63
21824;BME280;11074;48.596;9.238;2024-01-11T08:39:01;99390.84;;;-2.86;78.79
21824;BME280;11074;48.596;9.238;2024-01-11T08:41:28;99390.69;;;-2.84;78.73
21824;BME280;11074;48.596;9.238;2024-01-11T08:43:53;99401.44;;;-2.97;79.14
21824;BME280;11074;48.596;9.238;2024-01-11T08:46:27;99404.06;;;-2.97;80.07
21824;BME280;11074;48.596;9.238;2024-01-11T08:48:54;99409.84;;;-2.93;79.91
21824;BME280;11074;48.596;9.238;2024-01-11T08:51:19;99413.44;;;-2.85;79.95
21824;BME280;11074;48.596;9.238;2024-01-11T08:53:44;99416.47;;;-2.80;78.80
21824;BME280;11074;48.596;9.238;2024-01-11T08:56:10;99402.81;;;-2.74;79.08
21824;BME280;11074;48.596;9.238;2024-01-11T08:58:35;99408.63;;;-2.70;79.16
21824;BME280;11074;48.596;9.238;2024-01-11T09:01:01;99409.69;;;-2.63;79.03
21824;BME280;11074;48.596;9.238;2024-01-11T09:03:26;99411.38;;;-2.62;78.04
21824;BME280;11074;48.596;9.238;2024-01-11T09:05:52;99416.31;;;-2.59;78.59
21824;BME280;11074;48.596;9.238;2024-01-11T09:08:17;99414.53;;;-2.59;78.02
21824;BME280;11074;48.596;9.238;2024-01-11T09:10:42;99406.97;;;-2.62;78.51
21824;BME280;11074;48.596;9.238;2024-01-11T09:13:07;99410.53;;;-2.82;79.80
21824;BME280;11074;48.596;9.238;2024-01-11T09:15:33;99418.78;;;-2.58;79.92
21824;BME280;11074;48.596;9.238;2024-01-11T09:17:59;99410.81;;;-2.75;79.99
21824;BME280;11074;48.596;9.238;2024-01-11T09:20:25;99406.28;;;-2.54;80.47
21824;BME280;11074;48.596;9.238;2024-01-11T09:22:50;99410.56;;;-2.53;79.81
21824;BME280;11074;48.596;9.238;2024-01-11T09:25:16;99401.59;;;-2.51;79.24
21824;BME280;11074;48.596;9.238;2024-01-11T09:27:41;99404.75;;;-2.57;79.31
21824;BME280;11074;48.596;9.238;2024-01-11T09:30:07;99397.00;;;-2.39;79.41
21824;BME280;11074;48.596;9.238;2024-01-11T09:32:32;99395.78;;;-2.45;79.57
21824;BME280;11074;48.596;9.238;2024-01-11T09:34:57;99404.47;;;-2.44;79.08
21824;BME280;11074;48.596;9.238;2024-01-11T09:37:23;99405.13;;;-2.42;79.65
21824;BME280;11074;48.596;9.238;2024-01-11T09:39:48;99401.97;;;-2.26;78.73
21824;BME280;11074;48.596;9.238;2024-01-11T09:42:14;99401.16;;;-2.36;79.72
21824;BME280;11074;48.596;9.238;2024-01-11T09:44:40;99396.44;;;-2.23;80.24
21824;BME280;11074;48.596;9.238;2024-01-11T09:47:08;99397.00;;;-2.20;80.35
21824;BME280;11074;48.596;9.238;2024-01-11T09:49:36;99396.56;;;-2.06;79.52
21824;BME280;11074;48.596;9.238;2024-01-11T09:52:04;99398.38;;;-2.25;80.08
21824;BME280;11074;48.596;9.238;2024-01-11T09:54:29;99402.78;;;-2.26;80.66
21824;BME280;11074;48.596;9.238;2024-01-11T09:56:58;99408.38;;;-2.02;80.45
21824;BME280;11074;48.596;9.238;2024-01-11T09:59:24;99400.91;;;-1.97;80.21
21824;BME280;11074;48.596;9.238;2024-01-11T10:01:50;99396.19;;;-1.84;80.13
21824;BME280;11074;48.596;9.238;2024-01-11T10:04:16;99403.47;;;-1.77;79.72
21824;BME280;11074;48.596;9.238;2024-01-11T10:06:42;99392.25;;;-1.60;79.00
21824;BME280;11074;48.596;9.238;2024-01-11T10:09:08;99400.31;;;-1.71;79.97
21824;BME280;11074;48.596;9.238;2024-01-11T10:11:34;99399.41;;;-1.53;79.74
21824;BME280;11074;48.596;9.238;2024-01-11T10:14:03;99387.94;;;-1.52;79.23
21824;BME280;11074;48.596;9.238;2024-01-11T10:16:30;99398.38;;;-1.42;79.90
21824;BME280;11074;48.596;9.238;2024-01-11T10:18:56;99398.47;;;-1.34;79.43
21824;BME280;11074;48.596;9.238;2024-01-11T10:21:23;99396.41;;;-1.31;79.10
21824;BME280;11074;48.596;9.238;2024-01-11T10:23:51;99385.00;;;-1.22;78.76
21824;BME280;11074;48.596;9.238;2024-01-11T10:26:17;99378.75;;;-1.38;79.44
21824;BME280;11074;48.596;9.238;2024-01-11T10:28:46;99383.69;;;-1.35;79.49
21824;BME280;11074;48.596;9.238;2024-01-11T10:31:12;99365.69;;;-1.20;78.96
21824;BME280;11074;48.596;9.238;2024-01-11T10:33:37;99369.94;;;-1.19;79.62
21824;BME280;11074;48.596;9.238;2024-01-11T10:36:03;99369.22;;;-1.12;79.06
21824;BME280;11074;48.596;9.238;2024-01-11T10:38:31;99370.28;;;-1.50;80.93
21824;BME280;11074;48.596;9.238;2024-01-11T10:41:00;99368.78;;;-1.52;81.51
21824;BME280;11074;48.596;9.238;2024-01-11T10:43:26;99365.44;;;-1.27;80.48
21824;BME280;11074;48.596;9.238;2024-01-11T10:45:54;99364.31;;;-1.25;80.61
21824;BME280;11074;48.596;9.238;2024-01-11T10:48:25;99368.16;;;-1.19;80.16
21824;BME280;11074;48.596;9.238;2024-01-11T10:50:54;99367.78;;;-1.06;79.69
21824;BME280;11074;48.596;9.238;2024-01-11T10:53:41;99353.69;;;-1.05;79.73
21824;BME280;11074;48.596;9.238;2024-01-11T10:56:12;99352.81;;;-0.96;79.93
21824;BME280;11074;48.596;9.238;2024-01-11T10:58:42;99351.75;;;-1.03;80.43
21824;BME280;11074;48.596;9.238;2024-01-11T11:01:08;99359.84;;;-0.97;80.33
21824;BME280;11074;48.596;9.238;2024-01-11T11:03:35;99362.16;;;-0.76;79.31
21824;BME280;11074;48.596;9.238;2024-01-11T11:06:02;99361.56;;;-0.70;78.42
21824;BME280;11074;48.596;9.238;2024-01-11T11:08:29;99360.59;;;-0.69;78.31
21824;BME280;11074;48.596;9.238;2024-01-11T11:10:59;99363.22;;;-0.69;79.24
21824;BME280;11074;48.596;9.238;2024-01-11T11:13:25;99361.66;;;-0.62;78.32
21824;BME280;11074;48.596;9.238;2024-01-11T11:15:54;99361.34;;;-0.59;79.57
21824;BME280;11074;48.596;9.238;2024-01-11T11:18:22;99358.78;;;-0.69;79.17
21824;BME280;11074;48.596;9.238;2024-01-11T11:20:47;99359.25;;;-0.73;78.88
21824;BME280;11074;48.596;9.238;2024-01-11T11:23:17;99364.03;;;-0.69;79.04
21824;BME280;11074;48.596;9.238;2024-01-11T11:25:48;99352.50;;;-0.76;79.86
21824;BME280;11074;48.596;9.238;2024-01-11T11:28:17;99369.44;;;-0.70;79.66
21824;BME280;11074;48.596;9.238;2024-01-11T11:30:44;99370.84;;;-0.58;79.79
21824;BME280;11074;48.596;9.238;2024-01-11T11:33:25;99365.97;;;-0.53;79.36
21824;BME280;11074;48.596;9.238;2024-01-11T11:35:57;99367.63;;;-0.52;79.74
21824;BME280;11074;48.596;9.238;2024-01-11T11:38:27;99355.63;;;-0.54;79.40
21824;BME280;11074;48.596;9.238;2024-01-11T11:40:55;99349.91;;;-0.50;79.52
21824;BME280;11074;48.596;9.238;2024-01-11T11:43:21;99355.47;;;-0.53;80.26
21824;BME280;11074;48.596;9.238;2024-01-11T11:45:47;99356.13;;;-0.33;79.50
21824;BME280;11074;48.596;9.238;2024-01-11T11:53:33;99361.72;;;-0.28;79.08
21824;BME280;11074;48.596;9.238;2024-01-11T11:55:59;99349.94;;;-0.24;79.71
21824;BME280;11074;48.596;9.238;2024-01-11T11:58:25;99345.97;;;-0.28;79.79
21824;BME280;11074;48.596;9.238;2024-01-11T12:00:50;99334.81;;;-0.30;79.86
21824;BME280;11074;48.596;9.238;2024-01-11T12:03:16;99315.28;;;-0.28;79.93
21824;BME280;11074;48.596;9.238;2024-01-11T12:05:42;99305.53;;;-0.35;80.31
21824;BME280;11074;48.596;9.238;2024-01-11T12:08:08;99313.47;;;-0.27;80.24
21824;BME280;11074;48.596;9.238;2024-01-11T12:10:36;99306.50;;;-0.11;79.62
21824;BME280;11074;48.596;9.238;2024-01-11T12:13:01;99316.88;;;-0.09;79.75
21824;BME280;11074;48.596;9.238;2024-01-11T12:15:27;99319.53;;;-0.01;79.26
21824;BME280;11074;48.596;9.238;2024-01-11T12:17:57;99312.25;;;-0.07;79.10
21824;BME280;11074;48.596;9.238;2024-01-11T12:20:23;99301.50;;;0.04;78.48
21824;BME280;11074;48.596;9.238;2024-01-11T12:22:48;99290.03;;;0.13;78.67
21824;BME280;11074;48.596;9.238;2024-01-11T12:25:14;99287.28;;;0.23;78.29
21824;BME280;11074;48.596;9.238;2024-01-11T12:27:39;99283.16;;;0.20;78.40
21824;BME280;11074;48.596;9.238;2024-01-11T12:30:06;99283.75;;;0.48;77.05
21824;BME280;11074;48.596;9.238;2024-01-11T12:32:32;99288.84;;;0.49;76.86
21824;BME280;11074;48.596;9.238;2024-01-11T12:34:58;99288.56;;;0.69;75.92
21824;BME280;11074;48.596;9.238;2024-01-11T12:37:23;99276.91;;;0.79;76.56
21824;BME280;11074;48.596;9.238;2024-01-11T12:39:49;99272.00;;;1.00;75.48
21824;BME280;11074;48.596;9.238;2024-01-11T12:42:14;99273.47;;;1.11;74.98
21824;BME280;11074;48.596;9.238;2024-01-11T12:44:39;99270.97;;;1.17;74.75
21824;BME280;11074;48.596;9.238;2024-01-11T12:47:07;99276.94;;;1.28;74.40
21824;BME280;11074;48.596;9.238;2024-01-11T12:49:35;99276.44;;;1.32;74.50
21824;BME280;11074;48.596;9.238;2024-01-11T12:52:00;99271.78;;;1.42;72.99
21824;BME280;11074;48.596;9.238;2024-01-11T12:54:25;99266.38;;;1.36;73.49
21824;BME280;11074;48.596;9.238;2024-01-11T13:00:13;99271.97;;;1.49;73.87
21824;BME280;11074;48.596;9.238;2024-01-11T13:02:39;99269.81;;;1.52;72.91